AFL1334 UUEE-ULAA
Flight info
| Callsign | AFL1334 |
|---|---|
| Flight time | 1h 36m |
| Altitude | 350000 |
| Route | K0850F350 DCT RILPO T753 DEGOP/K0852F360 T747 TIPNA P988 GITOT/K0857F370 P988 RUPAD T825 ABELU DCT |
| Aircraft | A320/M-SDE3FGHIRWY/LB1 |
Departure
| Time | 2026-04-23 16:44 |
|---|---|
| Airport | Sheremetyevo International Airport (UUEE) |
Arrival
| Time | 2026-04-23 18:20 |
|---|---|
| Airport | Talagi Airport (ULAA) |
| Time | Latitude | Longitude | Altitude | Speed | Heading |
|---|---|---|---|---|---|
| 2026-04-23 16:17 | 55.97995 | 37.41854 | 637 ft | 0 kts | 255° |
| 2026-04-23 16:31 | 55.97995 | 37.41855 | 637 ft | 0 kts | 254° |
| 2026-04-23 16:31 | 55.97995 | 37.41876 | 637 ft | 1 kts | 284° |
| 2026-04-23 16:31 | 55.97997 | 37.41899 | 637 ft | 1 kts | 246° |
| 2026-04-23 16:31 | 55.98000 | 37.41916 | 637 ft | 2 kts | 252° |
| 2026-04-23 16:32 | 55.98008 | 37.41938 | 637 ft | 2 kts | 225° |
| 2026-04-23 16:32 | 55.98020 | 37.41955 | 637 ft | 2 kts | 205° |
| 2026-04-23 16:32 | 55.98034 | 37.41963 | 637 ft | 2 kts | 186° |
| 2026-04-23 16:32 | 55.98048 | 37.41962 | 637 ft | 0 kts | 168° |
| 2026-04-23 16:33 | 55.98054 | 37.41959 | 637 ft | 1 kts | 163° |
| 2026-04-23 16:33 | 55.98055 | 37.41959 | 637 ft | 0 kts | 164° |
| 2026-04-23 16:35 | 55.98049 | 37.41962 | 637 ft | 1 kts | 164° |
| 2026-04-23 16:36 | 55.98014 | 37.41980 | 637 ft | 8 kts | 162° |
| 2026-04-23 16:36 | 55.97952 | 37.42013 | 637 ft | 10 kts | 165° |
| 2026-04-23 16:36 | 55.97879 | 37.42044 | 637 ft | 11 kts | 166° |
| 2026-04-23 16:36 | 55.97798 | 37.42085 | 637 ft | 12 kts | 163° |
| 2026-04-23 16:37 | 55.97715 | 37.42125 | 637 ft | 8 kts | 163° |
| 2026-04-23 16:37 | 55.97688 | 37.42211 | 637 ft | 9 kts | 76° |
| 2026-04-23 16:37 | 55.97706 | 37.42332 | 637 ft | 10 kts | 75° |
| 2026-04-23 16:37 | 55.97725 | 37.42459 | 637 ft | 10 kts | 74° |
| 2026-04-23 16:38 | 55.97746 | 37.42592 | 637 ft | 11 kts | 75° |
| 2026-04-23 16:38 | 55.97765 | 37.42724 | 637 ft | 9 kts | 76° |
| 2026-04-23 16:38 | 55.97732 | 37.42792 | 637 ft | 3 kts | 160° |
| 2026-04-23 16:39 | 55.97716 | 37.42800 | 637 ft | 5 kts | 163° |
| 2026-04-23 16:39 | 55.97658 | 37.42835 | 637 ft | 11 kts | 154° |
| 2026-04-23 16:40 | 55.97611 | 37.42848 | 637 ft | 5 kts | 226° |
| 2026-04-23 16:40 | 55.97604 | 37.42824 | 637 ft | 0 kts | 251° |
| 2026-04-23 16:41 | 55.97604 | 37.42822 | 637 ft | 0 kts | 252° |
| 2026-04-23 16:41 | 55.97601 | 37.42806 | 637 ft | 0 kts | 255° |
| 2026-04-23 16:43 | 55.97601 | 37.42804 | 637 ft | 1 kts | 255° |
| 2026-04-23 16:43 | 55.97557 | 37.42492 | 637 ft | 61 kts | 256° |
| 2026-04-23 16:43 | 55.97386 | 37.41357 | 637 ft | 126 kts | 255° |
| 2026-04-23 16:43 | 55.97116 | 37.39541 | 792 ft | 165 kts | 261° |
| 2026-04-23 16:44 | 55.96804 | 37.37609 | 1451 ft | 166 kts | 261° |
| 2026-04-23 16:44 | 55.96490 | 37.35627 | 2054 ft | 170 kts | 264° |
| 2026-04-23 16:44 | 55.96162 | 37.33539 | 2421 ft | 184 kts | 264° |
| 2026-04-23 16:44 | 55.95807 | 37.31236 | 2763 ft | 200 kts | 263° |
| 2026-04-23 16:45 | 55.95419 | 37.28722 | 3126 ft | 218 kts | 263° |
| 2026-04-23 16:45 | 55.95003 | 37.26056 | 3473 ft | 235 kts | 262° |
| 2026-04-23 16:45 | 55.94545 | 37.23129 | 3773 ft | 256 kts | 262° |
| 2026-04-23 16:45 | 55.94043 | 37.19947 | 4153 ft | 275 kts | 261° |
| 2026-04-23 16:46 | 55.93518 | 37.16658 | 4515 ft | 281 kts | 261° |
| 2026-04-23 16:46 | 55.92972 | 37.13259 | 4888 ft | 284 kts | 260° |
| 2026-04-23 16:46 | 55.92438 | 37.09908 | 5247 ft | 285 kts | 260° |
| 2026-04-23 16:46 | 55.91900 | 37.06519 | 5609 ft | 287 kts | 260° |
| 2026-04-23 16:47 | 55.91534 | 37.03050 | 5956 ft | 280 kts | 280° |
| 2026-04-23 16:47 | 55.92084 | 36.99865 | 6619 ft | 268 kts | 311° |
| 2026-04-23 16:47 | 55.93329 | 36.97600 | 7546 ft | 255 kts | 331° |
| 2026-04-23 16:47 | 55.94797 | 36.95836 | 8318 ft | 259 kts | 331° |
| 2026-04-23 16:48 | 55.96310 | 36.94026 | 9037 ft | 266 kts | 330° |
| 2026-04-23 16:48 | 55.97873 | 36.92304 | 9643 ft | 268 kts | 341° |
| 2026-04-23 16:48 | 55.99678 | 36.91732 | 9958 ft | 265 kts | 6° |
| 2026-04-23 16:48 | 56.01447 | 36.92630 | 10404 ft | 271 kts | 29° |
| 2026-04-23 16:49 | 56.03010 | 36.94423 | 11260 ft | 271 kts | 33° |
| 2026-04-23 16:49 | 56.04600 | 36.96287 | 11991 ft | 275 kts | 32° |
| 2026-04-23 16:49 | 56.06193 | 36.98148 | 12645 ft | 280 kts | 32° |
| 2026-04-23 16:49 | 56.07836 | 37.00063 | 13210 ft | 285 kts | 32° |
| 2026-04-23 16:50 | 56.09503 | 37.02007 | 13453 ft | 288 kts | 32° |
| 2026-04-23 16:50 | 56.11091 | 37.04167 | 13449 ft | 289 kts | 46° |
| 2026-04-23 16:50 | 56.12196 | 37.07153 | 13465 ft | 295 kts | 66° |
| 2026-04-23 16:50 | 56.12804 | 37.10786 | 13709 ft | 310 kts | 74° |
| 2026-04-23 16:51 | 56.13332 | 37.14599 | 14144 ft | 321 kts | 74° |
| 2026-04-23 16:51 | 56.13862 | 37.18445 | 14439 ft | 323 kts | 74° |
| 2026-04-23 16:51 | 56.14405 | 37.22344 | 14454 ft | 323 kts | 74° |
| 2026-04-23 16:51 | 56.14954 | 37.26237 | 14455 ft | 322 kts | 74° |
| 2026-04-23 16:52 | 56.15513 | 37.30136 | 14449 ft | 322 kts | 72° |
| 2026-04-23 16:52 | 56.16291 | 37.33869 | 14450 ft | 322 kts | 63° |
| 2026-04-23 16:52 | 56.17391 | 37.37388 | 14634 ft | 327 kts | 56° |
| 2026-04-23 16:52 | 56.18658 | 37.40764 | 15196 ft | 327 kts | 54° |
| 2026-04-23 16:53 | 56.19944 | 37.44118 | 15445 ft | 328 kts | 54° |
| 2026-04-23 16:53 | 56.21243 | 37.47506 | 15444 ft | 327 kts | 54° |
| 2026-04-23 16:53 | 56.22524 | 37.50868 | 15448 ft | 327 kts | 54° |
| 2026-04-23 16:53 | 56.23796 | 37.54208 | 15480 ft | 330 kts | 54° |
| 2026-04-23 16:54 | 56.25100 | 37.57624 | 15954 ft | 334 kts | 55° |
| 2026-04-23 16:54 | 56.26427 | 37.61104 | 16368 ft | 335 kts | 55° |
| 2026-04-23 16:54 | 56.27729 | 37.64526 | 16436 ft | 334 kts | 55° |
| 2026-04-23 16:54 | 56.29046 | 37.67999 | 16438 ft | 334 kts | 56° |
| 2026-04-23 16:55 | 56.30382 | 37.71352 | 16438 ft | 334 kts | 52° |
| 2026-04-23 16:55 | 56.31856 | 37.74617 | 16640 ft | 341 kts | 50° |
| 2026-04-23 16:55 | 56.33384 | 37.77900 | 17192 ft | 342 kts | 51° |
| 2026-04-23 16:55 | 56.34907 | 37.81168 | 17427 ft | 343 kts | 51° |
| 2026-04-23 16:56 | 56.36421 | 37.84426 | 17434 ft | 342 kts | 51° |
| 2026-04-23 16:56 | 56.37978 | 37.87688 | 17428 ft | 343 kts | 45° |
| 2026-04-23 16:56 | 56.39941 | 37.90125 | 17419 ft | 345 kts | 24° |
| 2026-04-23 16:56 | 56.42286 | 37.91137 | 17570 ft | 356 kts | 6° |
| 2026-04-23 16:57 | 56.44758 | 37.91448 | 18104 ft | 360 kts | 4° |
| 2026-04-23 16:57 | 56.47245 | 37.91739 | 18643 ft | 363 kts | 4° |
| 2026-04-23 16:57 | 56.49783 | 37.92050 | 19148 ft | 368 kts | 4° |
| 2026-04-23 16:57 | 56.52320 | 37.92377 | 19655 ft | 371 kts | 5° |
| 2026-04-23 16:58 | 56.54904 | 37.92722 | 20233 ft | 373 kts | 5° |
| 2026-04-23 16:58 | 56.57505 | 37.93074 | 20737 ft | 376 kts | 5° |
| 2026-04-23 16:58 | 56.60102 | 37.93429 | 21199 ft | 380 kts | 5° |
| 2026-04-23 16:58 | 56.62734 | 37.93789 | 21661 ft | 384 kts | 4° |
| 2026-04-23 16:59 | 56.65392 | 37.94152 | 22105 ft | 388 kts | 5° |
| 2026-04-23 16:59 | 56.68072 | 37.94965 | 22520 ft | 391 kts | 19° |
| 2026-04-23 16:59 | 56.70506 | 37.97121 | 22953 ft | 392 kts | 36° |
| 2026-04-23 16:59 | 56.72559 | 38.00349 | 23397 ft | 393 kts | 46° |
| 2026-04-23 17:00 | 56.74499 | 38.03884 | 23811 ft | 397 kts | 47° |
| 2026-04-23 17:00 | 56.76415 | 38.07427 | 24195 ft | 400 kts | 47° |
| 2026-04-23 17:00 | 56.78405 | 38.11075 | 24569 ft | 405 kts | 46° |
| 2026-04-23 17:00 | 56.80397 | 38.14695 | 24941 ft | 408 kts | 46° |
| 2026-04-23 17:01 | 56.82413 | 38.18339 | 25306 ft | 411 kts | 46° |
| 2026-04-23 17:01 | 56.84429 | 38.21976 | 25668 ft | 412 kts | 46° |
| 2026-04-23 17:01 | 56.86472 | 38.25650 | 26015 ft | 413 kts | 45° |
| 2026-04-23 17:01 | 56.88581 | 38.29156 | 26341 ft | 415 kts | 42° |
| 2026-04-23 17:02 | 56.90772 | 38.32600 | 26665 ft | 416 kts | 41° |
| 2026-04-23 17:02 | 56.92972 | 38.36026 | 26967 ft | 418 kts | 41° |
| 2026-04-23 17:02 | 56.95188 | 38.39478 | 27268 ft | 420 kts | 41° |
| 2026-04-23 17:02 | 56.97411 | 38.42953 | 27572 ft | 421 kts | 40° |
| 2026-04-23 17:03 | 56.99617 | 38.46412 | 27861 ft | 422 kts | 40° |
| 2026-04-23 17:03 | 57.01865 | 38.49944 | 28131 ft | 424 kts | 40° |
| 2026-04-23 17:03 | 57.04075 | 38.53422 | 28349 ft | 427 kts | 40° |
| 2026-04-23 17:03 | 57.06332 | 38.56987 | 28587 ft | 429 kts | 40° |
| 2026-04-23 17:04 | 57.08591 | 38.60564 | 28867 ft | 430 kts | 40° |
| 2026-04-23 17:04 | 57.10842 | 38.64127 | 29118 ft | 431 kts | 40° |
| 2026-04-23 17:04 | 57.13114 | 38.67732 | 29358 ft | 433 kts | 41° |
| 2026-04-23 17:04 | 57.15397 | 38.71359 | 29604 ft | 434 kts | 41° |
| 2026-04-23 17:05 | 57.17675 | 38.74987 | 29840 ft | 435 kts | 41° |
| 2026-04-23 17:05 | 57.19952 | 38.78625 | 30091 ft | 435 kts | 41° |
| 2026-04-23 17:05 | 57.22250 | 38.82296 | 30320 ft | 436 kts | 41° |
| 2026-04-23 17:05 | 57.24517 | 38.85926 | 30540 ft | 437 kts | 41° |
| 2026-04-23 17:06 | 57.26824 | 38.89624 | 30738 ft | 438 kts | 41° |
| 2026-04-23 17:06 | 57.29100 | 38.93282 | 30923 ft | 439 kts | 40° |
| 2026-04-23 17:06 | 57.31391 | 38.96970 | 31128 ft | 440 kts | 41° |
| 2026-04-23 17:06 | 57.33686 | 39.00670 | 31323 ft | 441 kts | 40° |
| 2026-04-23 17:07 | 57.35994 | 39.04400 | 31514 ft | 441 kts | 40° |
| 2026-04-23 17:07 | 57.38290 | 39.08114 | 31701 ft | 443 kts | 40° |
| 2026-04-23 17:07 | 57.40596 | 39.11852 | 31844 ft | 445 kts | 40° |
| 2026-04-23 17:07 | 57.42919 | 39.15626 | 32005 ft | 446 kts | 40° |
| 2026-04-23 17:08 | 57.45241 | 39.19407 | 32170 ft | 447 kts | 40° |
| 2026-04-23 17:08 | 57.47568 | 39.23201 | 32337 ft | 447 kts | 40° |
| 2026-04-23 17:08 | 57.49908 | 39.27010 | 32471 ft | 449 kts | 40° |
| 2026-04-23 17:08 | 57.52267 | 39.30842 | 32614 ft | 451 kts | 40° |
| 2026-04-23 17:09 | 57.54606 | 39.34647 | 32752 ft | 452 kts | 40° |
| 2026-04-23 17:09 | 57.56965 | 39.38492 | 32919 ft | 452 kts | 40° |
| 2026-04-23 17:09 | 57.59312 | 39.42330 | 33079 ft | 452 kts | 40° |
| 2026-04-23 17:09 | 57.61658 | 39.46174 | 33241 ft | 452 kts | 40° |
| 2026-04-23 17:10 | 57.64004 | 39.50025 | 33401 ft | 453 kts | 40° |
| 2026-04-23 17:10 | 57.66350 | 39.53885 | 33551 ft | 454 kts | 40° |
| 2026-04-23 17:10 | 57.68731 | 39.57809 | 33704 ft | 455 kts | 40° |
| 2026-04-23 17:10 | 57.71071 | 39.61676 | 33852 ft | 456 kts | 40° |
| 2026-04-23 17:11 | 57.73459 | 39.65629 | 34007 ft | 456 kts | 41° |
| 2026-04-23 17:11 | 57.75824 | 39.69552 | 34152 ft | 457 kts | 41° |
| 2026-04-23 17:11 | 57.78186 | 39.73475 | 34284 ft | 458 kts | 41° |
| 2026-04-23 17:11 | 57.80632 | 39.77254 | 34402 ft | 458 kts | 35° |
| 2026-04-23 17:12 | 57.86238 | 39.82731 | 34544 ft | 460 kts | 18° |
| 2026-04-23 17:12 | 57.89303 | 39.84261 | 34731 ft | 457 kts | 10° |
| 2026-04-23 17:12 | 57.92445 | 39.84929 | 34897 ft | 456 kts | 1° |
| 2026-04-23 17:13 | 57.95619 | 39.84711 | 35031 ft | 455 kts | 353° |
| 2026-04-23 17:13 | 57.98730 | 39.83768 | 35163 ft | 455 kts | 349° |
| 2026-04-23 17:13 | 58.01831 | 39.82647 | 35300 ft | 455 kts | 349° |
| 2026-04-23 17:13 | 58.04904 | 39.81505 | 35424 ft | 455 kts | 349° |
| 2026-04-23 17:14 | 58.11094 | 39.79216 | 35447 ft | 455 kts | 349° |
| 2026-04-23 17:14 | 58.17267 | 39.76955 | 35452 ft | 455 kts | 349° |
| 2026-04-23 17:15 | 58.23455 | 39.74694 | 35460 ft | 454 kts | 349° |
| 2026-04-23 17:15 | 58.29644 | 39.72429 | 35459 ft | 454 kts | 349° |
| 2026-04-23 17:16 | 58.35781 | 39.70174 | 35471 ft | 453 kts | 349° |
| 2026-04-23 17:16 | 58.41964 | 39.67896 | 35473 ft | 453 kts | 349° |
| 2026-04-23 17:17 | 58.48116 | 39.65621 | 35472 ft | 453 kts | 349° |
| 2026-04-23 17:17 | 58.54300 | 39.63327 | 35473 ft | 452 kts | 349° |
| 2026-04-23 17:18 | 58.63525 | 39.59891 | 35481 ft | 452 kts | 349° |
| 2026-04-23 17:19 | 58.69632 | 39.57606 | 35482 ft | 452 kts | 349° |
| 2026-04-23 17:19 | 58.75838 | 39.55658 | 35485 ft | 452 kts | 354° |
| 2026-04-23 17:20 | 58.82055 | 39.54479 | 35496 ft | 451 kts | 355° |
| 2026-04-23 17:21 | 58.94502 | 39.52433 | 35496 ft | 451 kts | 355° |
| 2026-04-23 17:21 | 59.03836 | 39.50891 | 35502 ft | 451 kts | 355° |
| 2026-04-23 17:22 | 59.13139 | 39.49344 | 35503 ft | 450 kts | 355° |
| 2026-04-23 17:23 | 59.22480 | 39.47777 | 35509 ft | 450 kts | 355° |
| 2026-04-23 17:24 | 59.31758 | 39.46220 | 35513 ft | 449 kts | 355° |
| 2026-04-23 17:24 | 59.41115 | 39.44640 | 35513 ft | 449 kts | 355° |
| 2026-04-23 17:25 | 59.50394 | 39.43066 | 35522 ft | 448 kts | 355° |
| 2026-04-23 17:26 | 59.62788 | 39.40958 | 35523 ft | 448 kts | 355° |
| 2026-04-23 17:27 | 59.72111 | 39.39362 | 35528 ft | 448 kts | 355° |
| 2026-04-23 17:27 | 59.78341 | 39.38291 | 35530 ft | 448 kts | 356° |
| 2026-04-23 17:28 | 59.84527 | 39.37046 | 35543 ft | 448 kts | 354° |
| 2026-04-23 17:28 | 59.90668 | 39.35543 | 35539 ft | 448 kts | 354° |
| 2026-04-23 17:29 | 59.96851 | 39.34044 | 35534 ft | 447 kts | 353° |
| 2026-04-23 17:30 | 60.05062 | 39.32079 | 35541 ft | 447 kts | 353° |
| 2026-04-23 17:30 | 60.15280 | 39.29633 | 35544 ft | 447 kts | 353° |
| 2026-04-23 17:31 | 60.21466 | 39.28124 | 35546 ft | 446 kts | 353° |
| 2026-04-23 17:31 | 60.27597 | 39.26471 | 35548 ft | 446 kts | 352° |
| 2026-04-23 17:32 | 60.33701 | 39.24808 | 35554 ft | 446 kts | 352° |
| 2026-04-23 17:32 | 60.39854 | 39.23136 | 35554 ft | 446 kts | 353° |
| 2026-04-23 17:33 | 60.45972 | 39.21473 | 35557 ft | 445 kts | 353° |
| 2026-04-23 17:33 | 60.52091 | 39.19804 | 35560 ft | 445 kts | 353° |
| 2026-04-23 17:34 | 60.58207 | 39.18129 | 35567 ft | 444 kts | 353° |
| 2026-04-23 17:35 | 60.67366 | 39.15613 | 35570 ft | 444 kts | 353° |
| 2026-04-23 17:35 | 60.76491 | 39.13092 | 35568 ft | 444 kts | 353° |
| 2026-04-23 17:36 | 60.82578 | 39.11401 | 35571 ft | 444 kts | 353° |
| 2026-04-23 17:36 | 60.88683 | 39.09700 | 35577 ft | 444 kts | 353° |
| 2026-04-23 17:37 | 60.94743 | 39.08005 | 35580 ft | 443 kts | 353° |
| 2026-04-23 17:38 | 61.03872 | 39.05441 | 35584 ft | 443 kts | 353° |
| 2026-04-23 17:38 | 61.09949 | 39.03727 | 35586 ft | 442 kts | 353° |
| 2026-04-23 17:39 | 61.16024 | 39.02007 | 35589 ft | 442 kts | 353° |
| 2026-04-23 17:39 | 61.22093 | 39.00410 | 35599 ft | 443 kts | 355° |
| 2026-04-23 17:39 | 61.25144 | 38.99989 | 35716 ft | 443 kts | 358° |
| 2026-04-23 17:40 | 61.28177 | 38.99889 | 35869 ft | 441 kts | 1° |
| 2026-04-23 17:40 | 61.31224 | 39.00111 | 35989 ft | 440 kts | 4° |
| 2026-04-23 17:40 | 61.34265 | 39.00659 | 36075 ft | 441 kts | 6° |
| 2026-04-23 17:41 | 61.40307 | 39.02655 | 36256 ft | 441 kts | 10° |
| 2026-04-23 17:41 | 61.46299 | 39.05061 | 36434 ft | 440 kts | 11° |
| 2026-04-23 17:41 | 61.49294 | 39.06274 | 36509 ft | 441 kts | 10° |
| 2026-04-23 17:42 | 61.58271 | 39.09903 | 36586 ft | 441 kts | 10° |
| 2026-04-23 17:43 | 61.64250 | 39.12324 | 36589 ft | 441 kts | 10° |
| 2026-04-23 17:43 | 61.70265 | 39.14769 | 36590 ft | 440 kts | 10° |
| 2026-04-23 17:44 | 61.76239 | 39.17207 | 36589 ft | 441 kts | 10° |
| 2026-04-23 17:44 | 61.85212 | 39.20890 | 36589 ft | 440 kts | 10° |
| 2026-04-23 17:45 | 61.94166 | 39.24727 | 36587 ft | 440 kts | 11° |
| 2026-04-23 17:46 | 62.03102 | 39.28823 | 36583 ft | 441 kts | 11° |
| 2026-04-23 17:46 | 62.09052 | 39.31549 | 36583 ft | 440 kts | 11° |
| 2026-04-23 17:47 | 62.15036 | 39.34288 | 36587 ft | 440 kts | 11° |
| 2026-04-23 17:48 | 62.23966 | 39.38375 | 36585 ft | 441 kts | 11° |
| 2026-04-23 17:48 | 62.29917 | 39.41118 | 36589 ft | 440 kts | 11° |
| 2026-04-23 17:49 | 62.35900 | 39.43890 | 36593 ft | 440 kts | 11° |
| 2026-04-23 17:49 | 62.41827 | 39.46649 | 36593 ft | 440 kts | 11° |
| 2026-04-23 17:50 | 62.47810 | 39.49444 | 36595 ft | 441 kts | 11° |
| 2026-04-23 17:50 | 62.56739 | 39.53639 | 36598 ft | 441 kts | 11° |
| 2026-04-23 17:51 | 62.62693 | 39.56450 | 36598 ft | 440 kts | 11° |
| 2026-04-23 17:52 | 62.71634 | 39.60694 | 36599 ft | 441 kts | 11° |
| 2026-04-23 17:52 | 62.77601 | 39.63541 | 36177 ft | 436 kts | 11° |
| 2026-04-23 17:52 | 62.80506 | 39.64933 | 35685 ft | 433 kts | 11° |
| 2026-04-23 17:53 | 62.86396 | 39.67761 | 34363 ft | 436 kts | 12° |
| 2026-04-23 17:53 | 62.89322 | 39.69170 | 33673 ft | 435 kts | 12° |
| 2026-04-23 17:53 | 62.92232 | 39.70574 | 33003 ft | 433 kts | 12° |
| 2026-04-23 17:54 | 62.95137 | 39.71979 | 32482 ft | 428 kts | 12° |
| 2026-04-23 17:54 | 62.98001 | 39.73367 | 32084 ft | 420 kts | 12° |
| 2026-04-23 17:54 | 63.03588 | 39.76084 | 31440 ft | 407 kts | 12° |
| 2026-04-23 17:55 | 63.08988 | 39.78719 | 30846 ft | 394 kts | 12° |
| 2026-04-23 17:55 | 63.11648 | 39.80019 | 30353 ft | 396 kts | 12° |
| 2026-04-23 17:55 | 63.14360 | 39.81347 | 29622 ft | 405 kts | 12° |
| 2026-04-23 17:56 | 63.17096 | 39.82687 | 28952 ft | 409 kts | 12° |
| 2026-04-23 17:56 | 63.22579 | 39.85389 | 27929 ft | 406 kts | 12° |
| 2026-04-23 17:56 | 63.25354 | 39.86760 | 27226 ft | 409 kts | 12° |
| 2026-04-23 17:57 | 63.28096 | 39.88117 | 26667 ft | 407 kts | 12° |
| 2026-04-23 17:57 | 63.30805 | 39.89463 | 26169 ft | 403 kts | 12° |
| 2026-04-23 17:57 | 63.36206 | 39.92155 | 25114 ft | 396 kts | 12° |
| 2026-04-23 17:58 | 63.38901 | 39.93500 | 24525 ft | 393 kts | 12° |
| 2026-04-23 17:58 | 63.41518 | 39.94810 | 23924 ft | 390 kts | 12° |
| 2026-04-23 17:58 | 63.44126 | 39.96170 | 23348 ft | 387 kts | 14° |
| 2026-04-23 17:58 | 63.46709 | 39.97879 | 22749 ft | 384 kts | 17° |
| 2026-04-23 17:59 | 63.49205 | 39.99735 | 22160 ft | 381 kts | 17° |
| 2026-04-23 17:59 | 63.51686 | 40.01625 | 21577 ft | 378 kts | 18° |
| 2026-04-23 17:59 | 63.54146 | 40.03507 | 20994 ft | 375 kts | 17° |
| 2026-04-23 17:59 | 63.56586 | 40.05372 | 20405 ft | 373 kts | 17° |
| 2026-04-23 18:00 | 63.59042 | 40.07250 | 19833 ft | 369 kts | 17° |
| 2026-04-23 18:00 | 63.61440 | 40.09088 | 19256 ft | 367 kts | 17° |
| 2026-04-23 18:00 | 63.63818 | 40.10912 | 18684 ft | 365 kts | 17° |
| 2026-04-23 18:00 | 63.66204 | 40.12743 | 18130 ft | 362 kts | 17° |
| 2026-04-23 18:01 | 63.68579 | 40.14571 | 17611 ft | 359 kts | 18° |
| 2026-04-23 18:01 | 63.70895 | 40.16354 | 17099 ft | 356 kts | 18° |
| 2026-04-23 18:01 | 63.73187 | 40.18376 | 16584 ft | 354 kts | 22° |
| 2026-04-23 18:01 | 63.75396 | 40.20799 | 16089 ft | 351 kts | 25° |
| 2026-04-23 18:02 | 63.77499 | 40.23392 | 15663 ft | 348 kts | 27° |
| 2026-04-23 18:02 | 63.79602 | 40.26037 | 15295 ft | 344 kts | 26° |
| 2026-04-23 18:02 | 63.81655 | 40.28625 | 14896 ft | 339 kts | 27° |
| 2026-04-23 18:02 | 63.83691 | 40.31191 | 14483 ft | 333 kts | 26° |
| 2026-04-23 18:03 | 63.85690 | 40.33711 | 14086 ft | 327 kts | 26° |
| 2026-04-23 18:03 | 63.87647 | 40.36182 | 13681 ft | 321 kts | 26° |
| 2026-04-23 18:03 | 63.89582 | 40.38631 | 13288 ft | 315 kts | 26° |
| 2026-04-23 18:03 | 63.91459 | 40.41007 | 12899 ft | 310 kts | 26° |
| 2026-04-23 18:04 | 63.93327 | 40.43373 | 12525 ft | 305 kts | 26° |
| 2026-04-23 18:04 | 63.95153 | 40.45688 | 12189 ft | 300 kts | 26° |
| 2026-04-23 18:04 | 63.96947 | 40.47969 | 11832 ft | 295 kts | 26° |
| 2026-04-23 18:04 | 63.98735 | 40.50247 | 11413 ft | 293 kts | 26° |
| 2026-04-23 18:05 | 64.00507 | 40.52507 | 11032 ft | 290 kts | 26° |
| 2026-04-23 18:05 | 64.02238 | 40.54718 | 10691 ft | 286 kts | 27° |
| 2026-04-23 18:05 | 64.03948 | 40.56902 | 10401 ft | 279 kts | 26° |
| 2026-04-23 18:05 | 64.05616 | 40.59040 | 10138 ft | 273 kts | 27° |
| 2026-04-23 18:06 | 64.07245 | 40.61136 | 9855 ft | 269 kts | 26° |
| 2026-04-23 18:06 | 64.08858 | 40.63205 | 9541 ft | 264 kts | 26° |
| 2026-04-23 18:06 | 64.10449 | 40.65254 | 9220 ft | 260 kts | 27° |
| 2026-04-23 18:06 | 64.12006 | 40.67255 | 8943 ft | 256 kts | 28° |
| 2026-04-23 18:07 | 64.13538 | 40.69237 | 8649 ft | 252 kts | 27° |
| 2026-04-23 18:07 | 64.15050 | 40.71193 | 8369 ft | 248 kts | 28° |
| 2026-04-23 18:07 | 64.16535 | 40.73112 | 8037 ft | 247 kts | 27° |
| 2026-04-23 18:07 | 64.18015 | 40.75019 | 7705 ft | 245 kts | 27° |
| 2026-04-23 18:08 | 64.19502 | 40.76943 | 7408 ft | 243 kts | 28° |
| 2026-04-23 18:08 | 64.20953 | 40.78830 | 7096 ft | 242 kts | 27° |
| 2026-04-23 18:08 | 64.22414 | 40.80720 | 6752 ft | 241 kts | 27° |
| 2026-04-23 18:08 | 64.23853 | 40.82596 | 6459 ft | 239 kts | 27° |
| 2026-04-23 18:09 | 64.25288 | 40.84463 | 6161 ft | 237 kts | 27° |
| 2026-04-23 18:09 | 64.26719 | 40.86330 | 5837 ft | 236 kts | 26° |
| 2026-04-23 18:09 | 64.28138 | 40.88184 | 5570 ft | 232 kts | 26° |
| 2026-04-23 18:09 | 64.29519 | 40.89989 | 5295 ft | 228 kts | 26° |
| 2026-04-23 18:10 | 64.30880 | 40.91769 | 5061 ft | 225 kts | 26° |
| 2026-04-23 18:10 | 64.32224 | 40.93528 | 4817 ft | 221 kts | 26° |
| 2026-04-23 18:10 | 64.33546 | 40.95266 | 4609 ft | 217 kts | 26° |
| 2026-04-23 18:10 | 64.34847 | 40.96973 | 4371 ft | 215 kts | 26° |
| 2026-04-23 18:11 | 64.36135 | 40.98662 | 4144 ft | 214 kts | 26° |
| 2026-04-23 18:11 | 64.37434 | 41.00364 | 3934 ft | 215 kts | 26° |
| 2026-04-23 18:11 | 64.38712 | 41.02053 | 3729 ft | 214 kts | 26° |
| 2026-04-23 18:11 | 64.40001 | 41.03755 | 3519 ft | 214 kts | 26° |
| 2026-04-23 18:12 | 64.41287 | 41.05448 | 3309 ft | 213 kts | 26° |
| 2026-04-23 18:12 | 64.42561 | 41.07144 | 3090 ft | 208 kts | 26° |
| 2026-04-23 18:12 | 64.43777 | 41.08756 | 2875 ft | 203 kts | 25° |
| 2026-04-23 18:12 | 64.45002 | 41.10376 | 2666 ft | 201 kts | 25° |
| 2026-04-23 18:13 | 64.46209 | 41.11961 | 2481 ft | 201 kts | 26° |
| 2026-04-23 18:13 | 64.47424 | 41.13562 | 2351 ft | 201 kts | 23° |
| 2026-04-23 18:13 | 64.48745 | 41.14429 | 2213 ft | 193 kts | 4° |
| 2026-04-23 18:13 | 64.50051 | 41.14758 | 2078 ft | 187 kts | 4° |
| 2026-04-23 18:14 | 64.51316 | 41.15076 | 2005 ft | 185 kts | 4° |
| 2026-04-23 18:14 | 64.52611 | 41.15420 | 1999 ft | 187 kts | 4° |
| 2026-04-23 18:14 | 64.53891 | 41.15760 | 2000 ft | 186 kts | 4° |
| 2026-04-23 18:14 | 64.55176 | 41.16122 | 1994 ft | 187 kts | 4° |
| 2026-04-23 18:15 | 64.56459 | 41.16483 | 1989 ft | 181 kts | 3° |
| 2026-04-23 18:15 | 64.57661 | 41.16259 | 2055 ft | 175 kts | 334° |
| 2026-04-23 18:15 | 64.58395 | 41.14067 | 2014 ft | 182 kts | 285° |
| 2026-04-23 18:15 | 64.58393 | 41.11105 | 2018 ft | 187 kts | 270° |
| 2026-04-23 18:16 | 64.58326 | 41.08122 | 2005 ft | 185 kts | 274° |
| 2026-04-23 18:16 | 64.58379 | 41.05150 | 1998 ft | 184 kts | 280° |
| 2026-04-23 18:16 | 64.58541 | 41.02189 | 1998 ft | 184 kts | 283° |
| 2026-04-23 18:17 | 64.58849 | 40.96407 | 1972 ft | 169 kts | 281° |
| 2026-04-23 18:17 | 64.58963 | 40.93869 | 1824 ft | 151 kts | 282° |
| 2026-04-23 18:17 | 64.59070 | 40.91527 | 1587 ft | 139 kts | 282° |
| 2026-04-23 18:17 | 64.59170 | 40.89405 | 1390 ft | 129 kts | 281° |
| 2026-04-23 18:18 | 64.59270 | 40.87337 | 1228 ft | 129 kts | 281° |
| 2026-04-23 18:18 | 64.59368 | 40.85263 | 1054 ft | 128 kts | 280° |
| 2026-04-23 18:18 | 64.59466 | 40.83198 | 877 ft | 129 kts | 282° |
| 2026-04-23 18:18 | 64.59563 | 40.81144 | 701 ft | 128 kts | 282° |
| 2026-04-23 18:19 | 64.59664 | 40.79097 | 533 ft | 128 kts | 279° |
| 2026-04-23 18:19 | 64.59763 | 40.77020 | 345 ft | 127 kts | 279° |
| 2026-04-23 18:19 | 64.59866 | 40.74988 | 166 ft | 128 kts | 282° |
| 2026-04-23 18:19 | 64.59965 | 40.72979 | 72 ft | 111 kts | 278° |
| 2026-04-23 18:20 | 64.60023 | 40.71896 | 72 ft | 30 kts | 278° |
| 2026-04-23 18:20 | 64.60043 | 40.71455 | 72 ft | 15 kts | 276° |
| 2026-04-23 18:20 | 64.60010 | 40.71333 | 72 ft | 10 kts | 196° |
| 2026-04-23 18:20 | 64.59978 | 40.71320 | 72 ft | 4 kts | 188° |
| 2026-04-23 18:21 | 64.59942 | 40.71310 | 72 ft | 6 kts | 187° |
| 2026-04-23 18:21 | 64.59904 | 40.71301 | 72 ft | 5 kts | 185° |
| 2026-04-23 18:21 | 64.59860 | 40.71287 | 72 ft | 6 kts | 205° |
| 2026-04-23 18:21 | 64.59839 | 40.71195 | 72 ft | 5 kts | 248° |
| 2026-04-23 18:22 | 64.59802 | 40.71153 | 72 ft | 5 kts | 186° |
| 2026-04-23 18:22 | 64.59758 | 40.71145 | 72 ft | 6 kts | 178° |
| 2026-04-23 18:22 | 64.59731 | 40.71232 | 72 ft | 5 kts | 96° |
| 2026-04-23 18:22 | 64.59728 | 40.71331 | 72 ft | 3 kts | 96° |
| 2026-04-23 18:23 | 64.59719 | 40.71373 | 72 ft | 3 kts | 146° |
| 2026-04-23 18:23 | 64.59673 | 40.71370 | 72 ft | 0 kts | 186° |